Time;durP1;ratioP1;P1;durP2;ratioP2;P2;SDS_P1;SDS_P2;PMS_P1;PMS_P2;Temp;Humidity;BMP_temperature;BMP_pressure;BME280_temperature;BME280_humidity;BME280_pressure;Samples;Min_cycle;Max_cycle;Signal;HPM_P1;HPM_P2
2022/08/16 00:01:22;;;;;;;3.30;2.50;;;20.10;99.90;;;20.84;79.73;99881.50;4974046;28;20623;-68
2022/08/16 00:03:52;;;;;;;2.90;2.70;;;20.10;99.90;;;21.02;78.53;99873.84;4959644;28;20719;-68
2022/08/16 00:06:19;;;;;;;3.50;3.03;;;20.10;99.90;;;20.92;79.40;99873.38;4955482;28;20711;-68
2022/08/16 00:08:47;;;;;;;3.33;3.03;;;20.10;99.90;;;20.88;79.23;99874.78;4954964;28;21020;-68
2022/08/16 00:11:14;;;;;;;4.50;2.90;;;20.10;99.90;;;20.76;79.98;99879.00;4955370;28;20624;-68
2022/08/16 00:13:47;;;;;;;3.60;2.83;;;20.00;99.90;;;20.81;79.80;99876.56;4969686;28;20670;-68
2022/08/16 00:16:26;;;;;;;2.63;2.43;;;20.00;99.90;;;20.84;79.66;99874.38;4956952;28;20641;-68
2022/08/16 00:19:30;;;;;;;3.10;2.80;;;20.00;99.90;;;20.94;79.46;99873.19;4955771;28;20664;-68
2022/08/16 00:22:09;;;;;;;2.60;2.40;;;20.00;99.90;;;20.78;80.27;99874.31;4968133;28;21204;-68
2022/08/16 00:24:44;;;;;;;2.63;2.43;;;20.00;99.90;;;20.60;81.19;99880.09;4954026;29;20628;-68
2022/08/16 00:27:13;;;;;;;5.10;3.20;;;19.90;99.90;;;20.55;81.46;99885.16;4957975;28;20663;-68
2022/08/16 00:29:41;;;;;;;2.60;2.40;;;19.90;99.90;;;20.45;82.49;99881.19;4965814;28;20627;-68
2022/08/16 00:32:08;;;;;;;3.07;2.10;;;19.80;99.90;;;20.47;82.09;99884.47;4970694;28;20650;-68
2022/08/16 00:34:37;;;;;;;4.20;2.77;;;19.80;99.90;;;20.55;81.70;99881.69;4953995;28;20632;-68
2022/08/16 00:37:17;;;;;;;3.80;2.63;;;19.80;99.90;;;20.58;81.23;99884.78;4954036;28;20638;-67
2022/08/16 00:39:47;;;;;;;3.20;2.83;;;19.80;99.90;;;20.48;82.13;99879.00;4966004;28;20643;-69
2022/08/16 00:42:29;;;;;;;3.07;2.77;;;19.70;99.90;;;20.47;81.97;99874.69;4973097;28;20616;-68
2022/08/16 00:45:24;;;;;;;4.13;2.83;;;19.80;99.90;;;20.48;81.84;99886.94;4973576;28;21250;-68
2022/08/16 00:47:53;;;;;;;2.60;2.40;;;19.70;99.90;;;20.47;81.98;99887.94;4971154;28;21258;-68
2022/08/16 00:50:28;;;;;;;2.70;2.37;;;19.70;99.90;;;20.52;81.48;99888.19;4959973;28;20636;-68
2022/08/16 00:53:05;;;;;;;5.27;3.17;;;19.70;99.90;;;20.36;82.16;99879.72;4954467;28;20644;-68
2022/08/16 00:55:36;;;;;;;4.53;3.03;;;19.60;99.90;;;20.32;82.29;99883.72;4953233;28;20636;-68
2022/08/16 00:58:05;;;;;;;3.30;3.00;;;19.70;99.90;;;20.42;81.91;99876.28;4954217;28;20759;-68
2022/08/16 01:00:44;;;;;;;4.30;2.53;;;19.60;99.90;;;20.37;82.15;99887.47;4939264;28;20730;-68
2022/08/16 01:03:23;;;;;;;3.17;2.70;;;19.60;99.90;;;20.32;82.54;99881.91;4956118;28;20665;-69
2022/08/16 01:05:58;;;;;;;3.53;2.80;;;19.60;99.90;;;20.28;82.75;99885.94;4972192;28;21077;-68
2022/08/16 01:08:26;;;;;;;2.60;2.20;;;19.60;99.90;;;20.28;82.97;99890.41;4972019;28;20670;-69
2022/08/16 01:11:04;;;;;;;2.80;2.60;;;19.60;99.90;;;20.41;82.32;99893.19;4965066;28;20619;-68
2022/08/16 01:13:35;;;;;;;3.43;2.80;;;19.60;99.90;;;20.46;81.45;99890.78;4986701;28;20663;-68
2022/08/16 01:16:06;;;;;;;2.40;2.20;;;19.60;99.90;;;20.33;82.47;99895.97;4972277;28;20620;-68
2022/08/16 01:18:46;;;;;;;3.53;2.60;;;19.60;99.90;;;20.50;81.55;99900.00;4959368;28;21092;-68
2022/08/16 01:21:57;;;;;;;2.57;2.37;;;19.60;99.90;;;20.23;83.40;99901.56;4976385;28;20698;-68
2022/08/16 01:24:56;;;;;;;4.37;2.80;;;19.50;99.90;;;20.27;82.63;99899.38;4938387;28;20604;-68
2022/08/16 01:27:35;;;;;;;3.60;2.60;;;19.50;99.90;;;20.23;83.02;99903.44;4935970;28;20628;-68
2022/08/16 01:30:27;;;;;;;2.90;2.67;;;19.50;99.90;;;20.28;83.15;99904.50;4936610;29;20624;-69
2022/08/16 01:33:00;;;;;;;3.03;2.57;;;19.40;99.90;;;20.40;82.42;99900.31;4947260;28;20669;-67
2022/08/16 01:35:53;;;;;;;3.67;2.63;;;19.40;99.90;;;20.30;83.02;99899.00;4968037;28;20639;-68
2022/08/16 01:38:34;;;;;;;3.50;2.70;;;19.50;99.90;;;20.28;82.91;99901.84;4971795;28;20638;-68
2022/08/16 01:41:26;;;;;;;2.60;2.40;;;19.50;99.90;;;20.18;83.58;99900.47;4972635;28;20618;-68
2022/08/16 01:43:56;;;;;;;5.90;3.27;;;19.40;99.90;;;20.15;83.67;99891.09;4956660;28;20664;-68
2022/08/16 01:46:45;;;;;;;3.57;2.70;;;19.40;99.90;;;20.13;83.77;99896.56;4936114;29;20656;-68
2022/08/16 01:49:18;;;;;;;15.63;3.37;;;19.40;99.90;;;20.07;84.18;99902.63;4953642;28;20632;-68
2022/08/16 01:51:56;;;;;;;2.63;2.43;;;19.40;99.90;;;20.08;84.12;99891.03;4957056;28;20636;-69
2022/08/16 01:54:24;;;;;;;3.70;2.80;;;19.30;99.90;;;19.91;85.42;99897.56;4962946;28;20624;-69
2022/08/16 01:56:58;;;;;;;3.20;2.77;;;19.20;99.90;;;19.96;84.98;99897.84;4955467;28;21164;-68
2022/08/16 01:59:26;;;;;;;3.27;2.83;;;19.20;99.90;;;20.03;84.49;99892.59;4971837;28;21219;-68
2022/08/16 02:01:54;;;;;;;4.27;3.27;;;19.20;99.90;;;20.12;84.02;99894.94;4956243;28;20679;-68
2022/08/16 02:04:28;;;;;;;3.70;3.40;;;19.30;99.90;;;19.99;84.75;99900.13;4953561;28;20679;-69
2022/08/16 02:07:17;;;;;;;4.87;3.00;;;19.30;99.90;;;19.71;86.74;99904.47;4963825;28;20635;-69
2022/08/16 02:09:49;;;;;;;6.23;3.37;;;19.10;99.90;;;19.80;86.47;99902.53;4971943;28;21178;-68
2022/08/16 02:12:28;;;;;;;3.47;3.17;;;19.10;99.90;;;19.73;86.44;99902.47;4964896;28;20639;-68
2022/08/16 02:15:17;;;;;;;3.73;2.90;;;19.10;99.90;;;19.86;85.67;99897.31;4971744;28;20608;-68
2022/08/16 02:17:57;;;;;;;8.90;3.23;;;19.00;99.90;;;19.94;85.01;99894.56;4952294;28;21464;-68
2022/08/16 02:20:27;;;;;;;3.37;3.07;;;19.10;99.90;;;19.84;85.77;99896.69;4953313;29;20617;-69
2022/08/16 02:22:59;;;;;;;5.77;3.27;;;19.10;99.90;;;19.97;84.64;99898.66;4951584;28;20664;-68
2022/08/16 02:25:32;;;;;;;3.50;2.90;;;19.10;99.90;;;19.80;85.99;99894.59;4936130;29;20604;-68
2022/08/16 02:28:20;;;;;;;4.23;3.40;;;19.00;99.90;;;19.98;84.70;99889.69;4952534;28;20737;-69
2022/08/16 02:30:51;;;;;;;3.33;2.97;;;19.10;99.90;;;19.93;84.90;99887.59;4953021;28;20621;-68
2022/08/16 02:33:20;;;;;;;3.83;3.43;;;19.00;99.90;;;19.74;85.90;99884.78;4952921;28;20616;-68
2022/08/16 02:36:09;;;;;;;3.50;3.03;;;19.00;99.90;;;19.51;87.40;99892.00;4951716;28;21003;-68
2022/08/16 02:38:56;;;;;;;5.50;3.43;;;18.90;99.90;;;19.50;87.56;99891.22;4953062;28;20641;-68
2022/08/16 02:41:22;;;;;;;4.50;3.50;;;18.80;99.90;;;19.52;87.23;99889.19;4935570;28;20675;-68
2022/08/16 02:43:52;;;;;;;4.27;2.80;;;18.80;99.90;;;19.59;86.68;99892.72;4972297;28;20670;-68
2022/08/16 02:46:19;;;;;;;7.20;3.53;;;18.80;99.90;;;19.68;85.71;99893.44;4971542;28;21010;-68
2022/08/16 02:49:00;;;;;;;5.60;3.10;;;18.90;99.90;;;19.83;84.97;99887.09;4972555;28;21274;-69
2022/08/16 02:51:27;;;;;;;3.73;3.33;;;18.90;99.90;;;19.70;85.16;99883.50;4976472;28;20646;-69
2022/08/16 02:53:57;;;;;;;5.07;3.70;;;18.90;99.90;;;19.76;84.45;99890.69;4972017;28;20623;-68
2022/08/16 02:56:24;;;;;;;3.47;3.00;;;18.90;99.90;;;19.83;84.48;99887.09;4969569;28;20627;-68
2022/08/16 02:58:58;;;;;;;3.43;3.13;;;18.90;99.90;;;19.78;84.32;99880.75;4973129;28;20735;-68
2022/08/16 03:01:30;;;;;;;3.90;3.47;;;18.90;99.90;;;19.64;85.25;99889.53;4974107;28;20658;-69
2022/08/16 03:04:04;;;;;;;5.43;3.70;;;18.90;99.90;;;19.68;84.79;99880.19;4969020;28;21301;-68
2022/08/16 03:06:52;;;;;;;3.53;3.23;;;18.90;99.90;;;19.73;84.49;99875.19;4954685;28;20627;-69
2022/08/16 03:09:24;;;;;;;5.30;3.63;;;18.90;99.90;;;19.82;84.11;99874.06;4955476;28;21238;-68
2022/08/16 03:11:55;;;;;;;6.30;3.90;;;18.80;99.90;;;19.79;83.94;99879.72;4954981;28;20647;-68
2022/08/16 03:14:21;;;;;;;5.90;3.67;;;18.80;99.90;;;19.76;84.12;99866.88;4939335;29;20634;-69
2022/08/16 03:16:52;;;;;;;4.77;3.80;;;18.90;99.90;;;19.92;83.40;99875.38;4957921;28;20621;-69
2022/08/16 03:19:32;;;;;;;7.83;4.00;;;18.90;99.90;;;19.83;83.38;99873.88;4967562;28;20664;-69
2022/08/16 03:22:21;;;;;;;3.83;3.47;;;18.90;99.90;;;19.88;83.32;99868.84;4954933;28;20620;-68
2022/08/16 03:25:03;;;;;;;3.77;3.30;;;18.90;99.90;;;19.76;83.63;99865.03;4954853;28;20844;-68
2022/08/16 03:27:37;;;;;;;4.20;3.67;;;18.90;99.90;;;19.80;83.49;99866.31;4939825;28;20624;-68
2022/08/16 03:30:13;;;;;;;4.70;3.87;;;18.90;99.90;;;19.84;83.46;99870.22;4972940;28;20662;-68
2022/08/16 03:32:45;;;;;;;4.40;3.70;;;18.80;99.90;;;19.54;85.16;99870.47;4957532;28;21103;-68
2022/08/16 03:35:17;;;;;;;4.27;3.87;;;18.80;99.90;;;19.52;85.59;99870.66;4967190;28;20747;-68
2022/08/16 03:37:47;;;;;;;4.60;3.70;;;18.70;99.90;;;19.37;86.19;99864.59;4988491;28;20643;-68
2022/08/16 03:40:32;;;;;;;7.17;3.77;;;18.70;99.90;;;19.13;87.74;99872.78;4975332;28;20651;-68
2022/08/16 03:43:04;;;;;;;5.70;4.53;;;18.50;99.90;;;19.13;88.19;99867.50;4979773;28;20627;-68
2022/08/16 03:45:48;;;;;;;4.00;3.23;;;18.50;99.90;;;19.18;87.92;99871.25;4958944;28;20635;-69
2022/08/16 03:48:20;;;;;;;6.10;4.40;;;18.40;99.90;;;19.22;87.61;99866.41;4974278;28;21071;-68
2022/08/16 03:51:06;;;;;;;5.30;3.80;;;18.40;99.90;;;19.15;88.05;99863.66;4975301;28;20713;-68
2022/08/16 03:53:36;;;;;;;5.83;4.40;;;18.50;99.90;;;19.15;87.93;99870.78;4974084;28;20643;-68
2022/08/16 03:56:06;;;;;;;6.50;4.00;;;18.50;99.90;;;18.99;88.92;99870.97;4974251;28;21118;-68
2022/08/16 03:58:44;;;;;;;7.13;5.10;;;18.40;99.90;;;18.98;89.07;99869.31;4957250;28;20655;-68
2022/08/16 04:01:14;;;;;;;7.93;5.03;;;18.40;99.90;;;19.01;89.31;99866.31;4972654;28;20643;-68
2022/08/16 04:03:42;;;;;;;6.80;4.70;;;18.30;99.90;;;19.12;88.23;99873.78;4973688;28;20663;-68
2022/08/16 04:06:10;;;;;;;6.47;5.27;;;18.40;99.90;;;19.27;87.39;99869.31;4975189;28;20674;-68
2022/08/16 04:08:37;;;;;;;7.40;5.53;;;18.40;99.90;;;19.28;87.13;99870.94;4964518;28;20656;-69
2022/08/16 04:11:05;;;;;;;7.63;6.07;;;18.50;99.90;;;19.23;87.48;99868.84;4954666;28;20992;-68
2022/08/16 04:13:33;;;;;;;11.37;5.80;;;18.50;99.90;;;19.26;87.32;99871.13;4954642;28;20663;-68
2022/08/16 04:16:21;;;;;;;7.20;5.07;;;18.50;99.90;;;19.46;86.14;99879.34;4941662;29;20634;-68
2022/08/16 04:18:55;;;;;;;7.20;5.17;;;18.60;99.90;;;19.62;84.78;99884.41;4973261;28;20798;-68
2022/08/16 04:21:31;;;;;;;7.40;5.23;;;18.70;99.90;;;19.72;84.31;99879.63;4955823;28;20631;-68
2022/08/16 04:23:59;;;;;;;8.30;6.77;;;18.80;99.90;;;19.88;83.54;99882.06;4965119;28;20758;-68
2022/08/16 04:26:27;;;;;;;7.87;6.73;;;18.90;99.90;;;19.98;82.87;99889.69;4973304;28;20612;-68
2022/08/16 04:28:59;;;;;;;10.17;6.27;;;18.90;99.90;;;20.11;82.06;99882.72;4986306;23;20700;-65
2022/08/16 04:31:48;;;;;;;8.37;5.90;;;19.00;99.90;;;20.31;80.66;99890.03;4957717;28;20614;-66
2022/08/16 04:34:27;;;;;;;7.33;5.80;;;19.20;99.90;;;20.33;80.28;99893.31;4932446;28;20635;-67
2022/08/16 04:36:56;;;;;;;8.03;5.17;;;19.20;99.90;;;20.29;80.27;99897.38;4956031;28;20667;-67
2022/08/16 04:39:29;;;;;;;7.77;5.20;;;19.20;99.90;;;20.16;80.72;99894.56;4942517;29;21311;-67
2022/08/16 04:42:14;;;;;;;8.13;5.50;;;19.20;99.90;;;20.28;80.40;99904.50;4946399;28;20643;-65
2022/08/16 04:44:42;;;;;;;7.33;5.00;;;19.30;99.90;;;20.34;80.01;99906.38;4972095;28;20759;-67
2022/08/16 04:47:28;;;;;;;6.33;5.47;;;19.30;99.90;;;20.18;80.62;99905.78;4968916;28;20670;-66
2022/08/16 04:49:58;;;;;;;4.87;4.37;;;19.30;99.90;;;20.21;80.30;99900.16;4954577;28;20653;-67
2022/08/16 04:52:25;;;;;;;6.20;5.50;;;19.30;99.90;;;20.25;80.29;99899.59;4972747;28;21229;-65
2022/08/16 04:55:13;;;;;;;10.40;6.20;;;19.30;99.90;;;20.30;79.83;99901.63;4969505;28;20661;-65
2022/08/16 04:57:42;;;;;;;7.77;6.30;;;19.30;99.90;;;20.46;79.73;99904.03;4936925;29;21105;-67
2022/08/16 05:00:14;;;;;;;9.03;5.97;;;19.30;99.90;;;20.62;78.39;99907.22;4937070;29;20619;-65
2022/08/16 05:03:10;;;;;;;7.30;6.10;;;19.50;99.90;;;20.81;77.75;99914.50;4946269;28;20651;-67
2022/08/16 05:05:40;;;;;;;8.43;5.57;;;19.60;99.90;;;20.85;77.00;99914.94;4954778;28;20674;-65
2022/08/16 05:08:26;;;;;;;7.30;5.50;;;19.70;99.90;;;20.84;77.16;99919.44;4955157;28;20643;-68
2022/08/16 05:11:01;;;;;;;6.77;4.43;;;19.70;99.90;;;20.78;76.91;99917.53;4972378;28;20695;-65
2022/08/16 05:13:34;;;;;;;7.30;4.97;;;19.70;99.90;;;20.65;77.51;99913.97;4956343;28;20607;-65
2022/08/16 05:16:26;;;;;;;5.97;5.00;;;19.70;99.90;;;20.75;77.47;99914.47;4956847;28;20615;-65
2022/08/16 05:18:59;;;;;;;6.27;4.70;;;19.70;99.90;;;20.72;77.61;99920.16;4972671;28;20648;-68
2022/08/16 05:21:27;;;;;;;6.63;4.93;;;19.70;99.90;;;20.77;77.19;99923.03;4971065;28;20640;-65
2022/08/16 05:24:06;;;;;;;5.40;4.73;;;19.70;99.90;;;20.84;76.99;99931.88;4956631;28;20667;-66
2022/08/16 05:26:39;;;;;;;7.07;5.07;;;19.80;99.90;;;21.06;76.04;99933.47;4954767;28;20624;-66
2022/08/16 05:29:09;;;;;;;7.47;5.27;;;19.90;99.90;;;21.11;75.97;99935.53;4941183;28;21258;-66
2022/08/16 05:31:41;;;;;;;7.20;4.90;;;20.00;99.90;;;21.35;75.62;99941.22;4971881;28;20710;-66
2022/08/16 05:34:20;;;;;;;6.43;4.67;;;20.20;99.90;;;21.77;73.94;99939.34;4971111;28;20636;-66
2022/08/16 05:36:49;;;;;;;7.67;5.83;;;20.60;99.90;;;22.25;72.03;99940.97;4971501;28;21036;-66
2022/08/16 05:39:18;;;;;;;5.53;5.00;;;21.00;99.90;;;22.57;70.31;99942.84;4953652;28;21040;-68
2022/08/16 05:41:47;;;;;;;6.40;5.67;;;21.40;99.90;;;23.02;68.92;99939.34;4956401;28;20616;-66
2022/08/16 05:44:20;;;;;;;12.10;6.07;;;21.70;99.90;;;23.51;67.72;99946.03;4940383;28;20699;-67
2022/08/16 05:46:54;;;;;;;6.00;4.90;;;22.10;99.90;;;23.54;66.30;99949.09;4956593;28;20623;-67
2022/08/16 05:49:23;;;;;;;9.60;5.77;;;22.40;99.90;;;23.60;66.93;99948.25;4935960;29;20696;-65
2022/08/16 05:51:53;;;;;;;9.00;5.67;;;22.50;99.90;;;24.20;63.56;99949.63;4953030;29;20621;-66
2022/08/16 05:54:22;;;;;;;6.93;5.30;;;22.90;99.90;;;24.75;62.81;99958.69;4949988;28;20638;-65
2022/08/16 05:56:53;;;;;;;7.70;5.67;;;23.30;99.90;;;24.87;61.04;99950.78;4971602;28;21479;-65
2022/08/16 05:59:23;;;;;;;6.73;5.60;;;23.40;99.90;;;25.20;60.66;99948.63;4972286;28;20639;-67
2022/08/16 06:01:50;;;;;;;6.97;5.23;;;23.60;99.90;;;26.16;57.96;99962.91;4955237;28;20722;-65
2022/08/16 06:04:20;;;;;;;7.30;5.33;;;24.20;99.90;;;26.69;55.93;99957.56;4951682;28;20702;-66
2022/08/16 06:07:05;;;;;;;6.37;5.00;;;24.60;99.90;;;27.91;51.98;99954.72;4971173;28;20626;-64
2022/08/16 06:09:50;;;;;;;5.97;4.93;;;25.50;99.90;;;28.17;51.54;99951.50;4956411;28;21296;-64
2022/08/16 06:12:18;;;;;;;7.77;5.17;;;25.80;99.90;;;27.62;51.39;99964.56;4971588;28;20631;-65
2022/08/16 06:15:02;;;;;;;9.00;4.60;;;26.00;99.90;;;27.01;53.46;99966.13;4956440;28;20721;-65
2022/08/16 06:17:34;;;;;;;7.37;5.57;;;25.50;99.90;;;26.39;55.58;99964.84;4973006;28;20624;-65
2022/08/16 06:20:20;;;;;;;7.10;5.03;;;25.00;99.90;;;26.10;55.91;99958.47;4954590;28;20639;-66
2022/08/16 06:22:55;;;;;;;7.30;5.40;;;24.80;99.90;;;26.08;56.29;99966.75;4969773;28;20626;-64
2022/08/16 06:25:31;;;;;;;11.53;5.47;;;24.60;99.90;;;26.89;54.72;99966.13;4940893;28;20730;-64
2022/08/16 06:28:07;;;;;;;5.67;4.87;;;24.90;99.90;;;28.70;49.94;99971.75;4954190;28;20690;-64
2022/08/16 06:30:39;;;;;;;6.13;5.10;;;25.80;99.90;;;29.44;47.41;99973.13;4954577;28;20647;-63
2022/08/16 06:33:16;;;;;;;9.17;4.50;;;26.50;99.90;;;31.46;43.16;99971.34;4970851;28;20642;-64
2022/08/16 06:35:53;;;;;;;5.70;5.10;;;27.80;98.40;;;33.37;38.82;99963.50;4954242;28;20659;-64
2022/08/16 06:38:26;;;;;;;6.00;4.80;;;29.10;96.00;;;34.99;36.02;99969.59;4954852;28;20643;-65
2022/08/16 06:41:05;;;;;;;5.17;4.67;;;30.30;93.70;;;33.34;38.01;99961.34;4955719;28;21230;-65
2022/08/16 06:43:40;;;;;;;6.77;5.30;;;30.30;91.20;;;30.74;42.77;99964.88;4976601;28;20674;-63
2022/08/16 06:46:24;;;;;;;5.40;4.60;;;29.00;92.10;;;29.28;45.62;99963.25;4970050;28;20635;-65
2022/08/16 06:48:58;;;;;;;7.90;5.60;;;28.00;93.30;;;28.28;48.15;99963.22;4959214;28;20662;-64
2022/08/16 06:51:25;;;;;;;6.20;5.03;;;27.10;95.00;;;27.60;50.70;99966.69;4974710;28;21049;-65
2022/08/16 06:54:12;;;;;;;6.40;5.13;;;26.30;96.60;;;26.98;52.21;99966.59;4956737;28;20698;-63
2022/08/16 06:56:41;;;;;;;6.30;5.10;;;25.80;97.90;;;26.67;53.38;99965.03;4972355;28;20634;-65
2022/08/16 06:59:08;;;;;;;6.80;5.00;;;25.40;98.80;;;26.44;53.83;99964.97;4970864;28;20659;-65
2022/08/16 07:01:37;;;;;;;5.53;5.03;;;25.20;99.50;;;26.25;54.33;99966.09;4973826;28;21079;-64
2022/08/16 07:04:20;;;;;;;10.23;5.27;;;25.00;99.90;;;25.60;56.37;99968.53;4988023;28;20679;-64
2022/08/16 07:07:00;;;;;;;6.10;5.50;;;24.60;99.90;;;25.45;57.22;99965.41;4971201;28;20646;-64
2022/08/16 07:09:28;;;;;;;8.50;5.17;;;24.40;99.90;;;26.03;55.88;99979.94;4953794;28;20743;-66
2022/08/16 07:11:57;;;;;;;6.00;5.40;;;24.50;99.90;;;26.40;54.31;99975.34;4954725;28;20642;-64
2022/08/16 07:14:30;;;;;;;8.13;5.93;;;24.70;99.90;;;27.92;50.43;99966.25;4967413;28;20648;-64
2022/08/16 07:16:58;;;;;;;5.57;4.97;;;25.40;99.90;;;28.58;48.14;99969.13;4967581;28;21028;-65
2022/08/16 07:19:31;;;;;;;6.90;6.00;;;26.10;99.10;;;28.01;49.57;99976.38;4953474;28;20663;-64
2022/08/16 07:22:18;;;;;;;5.63;4.97;;;26.10;98.70;;;28.99;47.11;99976.78;4957368;28;20643;-64
2022/08/16 07:25:09;;;;;;;7.57;5.30;;;26.70;97.80;;;27.97;49.65;99974.41;4970464;28;20671;-66
2022/08/16 07:27:39;;;;;;;5.23;4.73;;;26.50;97.40;;;28.48;48.07;99978.84;4954186;28;20619;-66
2022/08/16 07:30:11;;;;;;;6.30;5.37;;;26.50;97.60;;;28.59;47.80;99972.63;4953059;28;20675;-66
2022/08/16 07:32:59;;;;;;;6.70;5.47;;;26.60;97.40;;;29.52;45.82;99981.56;4965743;28;20612;-67
2022/08/16 07:35:26;;;;;;;6.70;5.37;;;27.10;96.70;;;29.50;45.85;99972.94;4970722;28;20723;-67
2022/08/16 07:37:53;;;;;;;6.43;4.80;;;27.30;96.20;;;29.56;46.15;99971.94;4952715;28;20643;-67
2022/08/16 07:40:21;;;;;;;5.30;4.80;;;27.40;96.10;;;30.75;43.37;99980.00;4970803;28;20623;-67
2022/08/16 07:43:08;;;;;;;4.50;4.20;;;27.90;95.60;;;32.89;39.22;99977.63;4966096;28;20623;-67
2022/08/16 07:45:35;;;;;;;5.93;5.33;;;29.30;93.50;;;34.51;36.16;99970.53;4973222;28;20682;-65
2022/08/16 07:48:03;;;;;;;6.10;4.67;;;30.40;91.60;;;36.04;33.58;99976.78;4973278;28;20671;-66
2022/08/16 07:50:38;;;;;;;5.70;5.17;;;31.50;89.90;;;37.92;31.21;99980.28;4957471;28;20635;-67
2022/08/16 07:53:30;;;;;;;5.20;4.80;;;32.90;85.00;;;39.48;28.30;99978.31;4960059;28;20653;-67
2022/08/16 07:55:59;;;;;;;6.37;5.60;;;34.30;78.30;;;40.27;27.70;99977.03;4973850;28;21214;-67
2022/08/16 07:58:28;;;;;;;4.77;4.37;;;35.10;73.50;;;41.10;26.39;99984.97;4974086;28;20753;-68
2022/08/16 08:01:05;;;;;;;5.23;4.83;;;35.70;70.70;;;40.50;26.63;99987.81;4957335;28;20653;-67
2022/08/16 08:03:42;;;;;;;5.17;4.47;;;35.40;67.90;;;38.32;28.94;99988.66;4966699;28;20620;-67
2022/08/16 08:06:21;;;;;;;5.10;4.70;;;34.90;68.10;;;34.21;35.32;99978.84;4973976;28;20729;-67
2022/08/16 08:08:51;;;;;;;5.70;5.27;;;32.30;71.30;;;34.46;35.27;99980.59;4958585;28;20726;-67
2022/08/16 08:11:27;;;;;;;5.60;5.20;;;32.00;73.20;;;33.94;35.72;99973.03;4973321;28;20630;-67
2022/08/16 08:13:59;;;;;;;6.13;5.53;;;31.40;74.80;;;32.42;38.53;99974.34;4957416;28;20665;-66
2022/08/16 08:16:31;;;;;;;6.67;5.40;;;30.70;75.70;;;32.55;38.79;99971.16;4957999;28;21174;-66
2022/08/16 08:18:59;;;;;;;5.40;4.90;;;30.30;78.20;;;34.24;35.79;99981.00;4961783;28;20659;-66
2022/08/16 08:21:31;;;;;;;5.07;4.67;;;30.80;78.10;;;36.66;32.09;99981.84;4972711;28;20758;-67
2022/08/16 08:24:20;;;;;;;6.03;5.43;;;32.00;76.00;;;39.23;28.09;99998.94;4967076;28;21000;-66
2022/08/16 08:26:47;;;;;;;4.87;4.57;;;33.70;72.70;;;41.17;26.17;99999.75;4972924;28;20645;-67
2022/08/16 08:29:17;;;;;;;5.50;5.10;;;35.00;69.00;;;42.73;24.12;100001.97;4955356;28;21250;-67
2022/08/16 08:31:51;;;;;;;5.33;4.93;;;36.20;65.70;;;44.20;22.40;100007.22;4957162;28;21036;-66
2022/08/16 08:34:19;;;;;;;4.93;4.63;;;37.30;63.10;;;44.42;22.10;100004.78;4971572;28;20640;-66
2022/08/16 08:36:49;;;;;;;4.77;4.47;;;37.90;61.10;;;44.76;21.80;100010.78;4957560;28;20699;-65
2022/08/16 08:39:20;;;;;;;5.20;4.70;;;38.40;59.30;;;45.22;21.57;100002.63;4955826;28;20698;-66
2022/08/16 08:41:47;;;;;;;5.73;5.20;;;38.80;58.10;;;43.61;22.66;100001.44;4973236;28;20624;-66
2022/08/16 08:44:16;;;;;;;5.50;5.00;;;38.70;56.30;;;42.16;23.85;99996.34;4992038;28;20997;-67
2022/08/16 08:47:01;;;;;;;5.23;4.73;;;37.80;57.00;;;43.71;22.45;100004.56;4978393;28;20622;-67
2022/08/16 08:49:36;;;;;;;5.63;5.23;;;37.90;57.30;;;45.80;20.47;100002.81;4942093;28;20647;-66
2022/08/16 08:52:21;;;;;;;4.70;4.50;;;39.10;56.00;;;47.58;18.59;99993.66;4958712;28;20626;-65
2022/08/16 08:55:08;;;;;;;5.33;4.97;;;40.10;54.50;;;47.00;19.50;100002.53;4956675;28;20638;-67
2022/08/16 08:57:45;;;;;;;5.33;4.93;;;40.10;53.40;;;47.11;19.12;99996.03;4973344;28;20674;-68
2022/08/16 09:00:17;;;;;;;5.37;4.97;;;40.20;53.20;;;47.48;18.66;100004.56;4940609;28;20639;-66
2022/08/16 09:02:47;;;;;;;5.30;4.80;;;40.60;52.00;;;47.12;19.14;99996.84;4957289;28;21069;-64
2022/08/16 09:05:21;;;;;;;5.60;5.13;;;41.00;52.20;;;46.98;18.70;99996.59;4955069;28;20762;-66
2022/08/16 09:08:01;;;;;;;6.63;5.13;;;41.00;51.20;;;47.70;18.51;99991.84;4971889;28;20624;-65
2022/08/16 09:10:32;;;;;;;5.23;4.73;;;41.20;50.80;;;49.94;16.60;100009.25;4973044;28;20619;-65
2022/08/16 09:13:00;;;;;;;6.63;5.23;;;42.30;49.80;;;50.35;15.69;100001.50;4972710;28;20647;-67
2022/08/16 09:15:27;;;;;;;5.17;4.87;;;42.70;49.00;;;49.50;16.50;100003.00;4952736;29;20729;-67
2022/08/16 09:18:01;;;;;;;5.47;5.07;;;42.40;48.60;;;49.65;16.72;100005.47;4952977;29;20656;-66
2022/08/16 09:20:54;;;;;;;4.93;4.30;;;42.90;47.80;;;49.09;17.42;100001.47;4957839;28;20646;-65
2022/08/16 09:23:30;;;;;;;4.77;4.57;;;42.30;47.90;;;50.61;15.70;100001.19;4969472;28;20649;-65
2022/08/16 09:26:06;;;;;;;4.93;4.73;;;43.30;47.30;;;49.65;16.26;99996.34;4953053;28;20865;-65
2022/08/16 09:28:53;;;;;;;6.30;5.80;;;43.00;47.30;;;51.97;15.00;99997.97;4956923;28;21238;-66
2022/08/16 09:31:40;;;;;;;5.67;5.17;;;44.10;46.70;;;53.32;14.27;100008.69;4958009;28;20643;-66
2022/08/16 09:34:08;;;;;;;5.17;4.87;;;44.80;45.80;;;54.38;13.93;99995.50;4973250;28;20623;-66
2022/08/16 09:36:36;;;;;;;5.47;5.27;;;45.70;44.60;;;54.42;13.39;99994.28;4971575;28;20655;-66
2022/08/16 09:39:12;;;;;;;4.87;4.40;;;46.00;43.90;;;54.78;13.42;100000.16;4948910;28;20687;-65
2022/08/16 09:41:51;;;;;;;4.57;4.37;;;46.30;43.30;;;52.44;13.76;99992.56;4954930;28;20657;-66
2022/08/16 09:44:25;;;;;;;4.77;4.47;;;45.70;42.80;;;50.84;15.26;99996.06;4990953;28;20617;-65
2022/08/16 09:47:12;;;;;;;4.67;4.37;;;44.70;43.20;;;48.60;16.94;99988.72;4939963;29;20581;-66
2022/08/16 09:49:39;;;;;;;5.23;4.70;;;43.30;44.40;;;46.01;19.14;99982.06;4938365;28;21205;-65
2022/08/16 09:52:09;;;;;;;5.07;4.70;;;42.20;45.10;;;42.05;22.80;99967.75;4972455;28;20686;-66
2022/08/16 09:54:39;;;;;;;4.63;4.33;;;39.90;47.10;;;44.89;20.29;99974.63;4954726;28;21010;-65
2022/08/16 09:57:11;;;;;;;5.30;4.90;;;39.60;47.90;;;43.36;21.55;99973.22;4969853;28;20678;-67
2022/08/16 09:59:38;;;;;;;5.53;5.00;;;39.20;47.90;;;39.47;26.49;99963.88;4953113;29;21236;-66
2022/08/16 10:02:08;;;;;;;5.30;5.00;;;37.00;50.20;;;38.63;27.57;99960.34;4936936;29;20735;-67
2022/08/16 10:04:55;;;;;;;5.43;5.00;;;36.20;51.90;;;38.02;28.38;99952.00;4951683;28;21203;-67
2022/08/16 10:07:30;;;;;;;5.67;5.27;;;35.50;53.10;;;40.02;26.31;99961.44;4955290;28;20670;-66
2022/08/16 10:10:21;;;;;;;4.93;4.53;;;35.70;54.40;;;45.29;20.22;99968.94;4956610;28;20738;-67
2022/08/16 10:13:13;;;;;;;5.47;5.00;;;38.00;51.60;;;48.89;17.38;99985.06;4956645;28;20643;-67
2022/08/16 10:15:46;;;;;;;5.27;4.80;;;40.30;49.20;;;50.90;15.85;99986.19;4957189;28;20723;-67
2022/08/16 10:18:29;;;;;;;4.90;4.60;;;42.10;47.00;;;51.15;15.24;99975.84;4972077;28;20742;-66
2022/08/16 10:21:16;;;;;;;7.53;5.47;;;42.80;45.80;;;51.15;14.62;99981.41;4957683;28;20627;-67
2022/08/16 10:23:45;;;;;;;4.93;4.63;;;43.10;45.30;;;49.71;15.70;99970.66;4971281;28;20756;-67
2022/08/16 10:26:12;;;;;;;5.47;5.07;;;42.80;45.40;;;47.49;17.74;99961.97;4971418;28;20658;-66
2022/08/16 10:29:00;;;;;;;6.87;4.77;;;41.90;46.00;;;45.86;19.59;99957.28;4990408;23;21058;-67
2022/08/16 10:31:32;;;;;;;5.10;4.80;;;40.40;47.50;;;44.70;20.39;99957.97;4960117;28;20631;-67
2022/08/16 10:34:12;;;;;;;5.17;4.87;;;40.00;47.90;;;39.72;25.35;99956.88;4984960;28;20632;-68
2022/08/16 10:36:59;;;;;;;5.47;4.97;;;37.30;49.50;;;39.52;26.07;99949.25;4985520;28;20625;-68
2022/08/16 10:39:26;;;;;;;4.37;4.17;;;36.90;50.70;;;38.62;26.70;99945.13;4990813;28;20646;-68
2022/08/16 10:42:09;;;;;;;9.10;4.87;;;36.20;51.10;;;37.44;28.88;99941.00;4992267;28;20622;-69
2022/08/16 10:44:40;;;;;;;5.60;5.20;;;35.50;52.10;;;36.12;30.67;99941.63;4989091;28;20692;-68
2022/08/16 10:47:09;;;;;;;6.07;5.60;;;34.60;53.30;;;35.29;32.11;99945.97;4990114;28;21301;-67
2022/08/16 10:49:37;;;;;;;5.37;4.90;;;33.80;54.70;;;34.63;32.87;99941.16;4975878;28;20658;-67
2022/08/16 10:52:05;;;;;;;5.77;5.03;;;33.20;55.50;;;33.63;34.12;99933.69;4990508;28;20726;-68